KGMU/GMU METAR and TAF weather

Enter ICAO airport designator
Station Type Date Time Source
KGMU METAR 2021/03/07 08:53 UTC NOAA

KGMU 070853Z AUTO 36004KT 10SM CLR 04/M11 A3024 RMK AO2 SLP242 T00441106 51008


Station Type Date Time Source
KGMU Decoded METAR 2021/03/07 08:53 UTC NOAA

GREENVILLE DOWNTOWN AIRPORT , SC, United States (KGMU) 34-51N 82-21W 315M
Mar 07, 2021 - 03:53 AM EST / 2021.03.07 0853 UTC
Wind: from the N (360 degrees) at 5 MPH (4 KT):0
Visibility: 10 mile(s):0
Sky conditions: clear
Temperature: 39.9 F (4.4 C)
Dew Point: 12.9 F (-10.6 C)
Relative Humidity: 32%
Pressure (altimeter): 30.24 in. Hg (1024 hPa)
Pressure tendency: 0.02 inches (0.8 hPa) higher than three hours ago
ob: KGMU 070853Z AUTO 36004KT 10SM CLR 04/M11 A3024 RMK AO2 SLP242 T00441106 51008
cycle: 9

Station Type Date Time Source
KGMU TAF 2021/03/07 06:24 UTC NOAA

TAF KGMU 070521Z 0706/0806 24005KT P6SM FEW250
FM071700 35007G14KT P6SM SKC
FM072300 35005KT P6SM SKC

Example: see airport list